Time;durP1;ratioP1;P1;durP2;ratioP2;P2;SDS_P1;SDS_P2;PMS_P1;PMS_P2;Temp;Humidity;BMP_temperature;BMP_pressure;BME280_temperature;BME280_humidity;BME280_pressure;Samples;Min_cycle;Max_cycle;Signal;HPM_P1;HPM_P2
2022/07/08 00:00:22;;;;;;;11.33;2.63;;;;;;;15.28;67.16;101521.06;5124282;27;20433;-67
2022/07/08 00:02:49;;;;;;;8.90;2.50;;;;;;;15.18;67.11;101523.72;5128008;27;20446;-66
2022/07/08 00:05:15;;;;;;;12.50;2.23;;;;;;;15.19;67.10;101530.81;5120573;28;20439;-68
2022/07/08 00:07:42;;;;;;;6.43;2.10;;;;;;;15.11;67.14;101532.50;5121682;28;20451;-67
2022/07/08 00:10:09;;;;;;;9.53;2.50;;;;;;;15.28;66.60;101518.34;5122317;27;20442;-68
2022/07/08 00:12:37;;;;;;;7.63;2.60;;;;;;;15.29;66.61;101530.81;5136232;27;20449;-68
2022/07/08 00:15:05;;;;;;;11.97;2.30;;;;;;;15.05;67.52;101524.00;5139784;27;20433;-67
2022/07/08 00:17:32;;;;;;;14.07;4.10;;;;;;;15.23;66.13;101516.06;5119718;28;20495;-68
2022/07/08 00:19:58;;;;;;;7.27;2.23;;;;;;;15.29;66.03;101522.72;5121547;28;20434;-67
2022/07/08 00:22:25;;;;;;;12.03;3.03;;;;;;;15.25;66.25;101524.03;5127397;27;20478;-68
2022/07/08 00:24:52;;;;;;;10.33;2.40;;;;;;;15.39;65.74;101523.59;5120984;28;20477;-68
2022/07/08 00:27:19;;;;;;;5.10;2.10;;;;;;;15.30;66.20;101518.22;5120763;28;20478;-67
2022/07/08 00:29:47;;;;;;;8.10;2.17;;;;;;;15.32;66.05;101522.47;5121951;28;20470;-67
2022/07/08 00:32:14;;;;;;;12.00;2.20;;;;;;;15.19;65.89;101524.56;5133914;27;21013;-67
2022/07/08 00:34:40;;;;;;;9.53;1.93;;;;;;;15.32;65.67;101525.16;5121068;28;20450;-68
2022/07/08 00:37:07;;;;;;;7.50;2.43;;;;;;;15.20;66.16;101527.13;5120160;28;20501;-68
2022/07/08 00:39:34;;;;;;;6.50;1.83;;;;;;;15.24;66.58;101527.69;5120885;28;20430;-69
2022/07/08 00:42:01;;;;;;;7.63;2.30;;;;;;;15.15;66.39;101529.38;5125740;27;20512;-66
2022/07/08 00:44:28;;;;;;;8.97;2.13;;;;;;;15.21;66.45;101528.00;5133817;27;20446;-69
2022/07/08 00:46:56;;;;;;;7.87;2.10;;;;;;;15.30;66.15;101531.69;5119072;28;20469;-69
2022/07/08 00:49:23;;;;;;;10.33;2.60;;;;;;;15.36;65.96;101536.50;5121461;28;20434;-69
2022/07/08 00:51:50;;;;;;;12.40;2.30;;;;;;;15.09;66.58;101535.34;5120147;27;20466;-69
2022/07/08 00:54:19;;;;;;;9.30;2.23;;;;;;;15.28;66.30;101539.91;5121299;28;20458;-71
2022/07/08 00:56:46;;;;;;;8.10;2.43;;;;;;;15.16;67.00;101546.41;5120142;28;20501;-70
2022/07/08 00:59:12;;;;;;;8.17;2.40;;;;;;;15.13;66.87;101541.28;5121326;28;20459;-68
2022/07/08 01:01:39;;;;;;;7.50;2.03;;;;;;;15.22;66.75;101548.53;5120206;27;20481;-69
2022/07/08 01:04:11;;;;;;;11.30;2.40;;;;;;;15.11;66.77;101554.91;5121018;28;20493;-71
2022/07/08 01:06:37;;;;;;;19.87;3.37;;;;;;;15.01;66.86;101548.63;5120504;28;20478;-70
2022/07/08 01:09:06;;;;;;;10.77;2.93;;;;;;;15.18;66.58;101555.19;5121348;28;20446;-68
2022/07/08 01:11:33;;;;;;;10.97;2.50;;;;;;;15.22;66.35;101554.78;5118524;28;20541;-67
2022/07/08 01:14:00;;;;;;;7.17;2.10;;;;;;;15.21;66.39;101553.09;5120300;28;20473;-64
2022/07/08 01:16:26;;;;;;;10.10;3.00;;;;;;;15.04;66.76;101565.38;5119296;28;20502;-66
2022/07/08 01:18:53;;;;;;;11.17;2.60;;;;;;;15.16;66.50;101560.72;5126868;27;20539;-65
2022/07/08 01:21:21;;;;;;;8.70;2.40;;;;;;;15.16;66.48;101558.03;5119517;28;20474;-64
2022/07/08 01:23:48;;;;;;;9.17;2.50;;;;;;;15.18;66.43;101556.03;5120681;28;20511;-66
2022/07/08 01:26:15;;;;;;;9.80;2.33;;;;;;;14.87;67.20;101555.25;5119911;28;20513;-65
2022/07/08 01:28:43;;;;;;;8.53;2.83;;;;;;;14.89;67.34;101539.81;5119597;28;20457;-66
2022/07/08 01:31:10;;;;;;;15.10;2.20;;;;;;;14.88;67.36;101538.13;5119315;28;21022;-66
2022/07/08 01:33:39;;;;;;;7.80;2.20;;;;;;;15.03;66.91;101543.97;5119727;28;20507;-66
2022/07/08 01:36:09;;;;;;;8.60;2.10;;;;;;;14.85;67.73;101549.16;5119670;28;20500;-66
2022/07/08 01:38:39;;;;;;;10.13;2.10;;;;;;;14.92;67.38;101539.53;5120476;28;20520;-65
2022/07/08 01:41:06;;;;;;;7.30;1.57;;;;;;;14.88;67.29;101541.66;5118546;28;20474;-67
2022/07/08 01:43:32;;;;;;;8.47;1.73;;;;;;;14.92;67.14;101542.22;5119723;28;20442;-65
2022/07/08 01:45:59;;;;;;;10.77;2.50;;;;;;;14.96;66.82;101538.25;5118756;28;20474;-66
2022/07/08 01:48:25;;;;;;;7.13;2.27;;;;;;;14.83;67.23;101537.69;5119745;28;20443;-67
2022/07/08 01:50:52;;;;;;;4.43;2.10;;;;;;;14.84;67.41;101536.66;5119499;28;20466;-67
2022/07/08 01:53:19;;;;;;;6.57;1.90;;;;;;;14.85;67.28;101543.78;5119657;28;20489;-67
2022/07/08 01:55:47;;;;;;;10.10;2.40;;;;;;;14.94;67.18;101532.16;5129770;28;20549;-68
2022/07/08 01:58:13;;;;;;;6.60;2.00;;;;;;;15.10;66.34;101533.50;5141356;28;20905;-66
2022/07/08 02:00:40;;;;;;;4.47;1.77;;;;;;;14.83;67.39;101535.84;5138636;28;21066;-66
2022/07/08 02:03:07;;;;;;;7.70;2.47;;;;;;;14.79;67.55;101531.72;5119655;28;20962;-67
2022/07/08 02:05:34;;;;;;;10.53;2.10;;;;;;;14.92;67.08;101534.16;5119563;28;20521;-65
2022/07/08 02:08:01;;;;;;;13.80;2.33;;;;;;;14.87;66.76;101534.56;5120285;28;20490;-65
2022/07/08 02:10:28;;;;;;;9.23;2.63;;;;;;;14.89;67.24;101537.13;5119545;28;20461;-67
2022/07/08 02:12:55;;;;;;;7.90;2.53;;;;;;;14.92;66.89;101536.84;5119299;28;20446;-66
2022/07/08 02:15:21;;;;;;;6.73;1.50;;;;;;;14.95;66.87;101533.88;5119514;28;20470;-65
2022/07/08 02:17:48;;;;;;;6.60;1.80;;;;;;;14.91;66.70;101542.38;5118679;28;20477;-67
2022/07/08 02:20:15;;;;;;;11.47;2.10;;;;;;;14.64;67.80;101538.47;5119789;28;20832;-67
2022/07/08 02:22:42;;;;;;;15.13;2.33;;;;;;;14.86;67.07;101540.09;5120453;28;20969;-67
2022/07/08 02:25:09;;;;;;;8.67;1.97;;;;;;;14.90;67.18;101532.59;5123027;27;20498;-66
2022/07/08 02:27:36;;;;;;;8.30;2.20;;;;;;;14.89;66.96;101537.13;5123812;28;20506;-66
2022/07/08 02:30:05;;;;;;;7.07;3.77;;;;;;;14.74;67.94;101531.28;5123842;28;20473;-65
2022/07/08 02:32:32;;;;;;;8.03;2.03;;;;;;;14.81;67.25;101536.97;5122422;28;20460;-66
2022/07/08 02:34:58;;;;;;;6.90;1.63;;;;;;;14.75;67.64;101538.34;5123812;27;20481;-66
2022/07/08 02:37:26;;;;;;;8.30;2.53;;;;;;;14.69;67.86;101539.75;5122809;28;20496;-66
2022/07/08 02:39:52;;;;;;;5.90;1.90;;;;;;;14.74;67.72;101542.03;5123694;28;20481;-65
2022/07/08 02:42:19;;;;;;;5.40;2.30;;;;;;;14.75;67.72;101543.72;5122410;28;20498;-65
2022/07/08 02:44:46;;;;;;;8.90;2.27;;;;;;;14.72;67.73;101543.16;5123830;27;20993;-66
2022/07/08 02:47:14;;;;;;;9.10;2.27;;;;;;;14.75;67.75;101540.19;5121749;28;20994;-64
2022/07/08 02:49:40;;;;;;;10.70;2.13;;;;;;;14.79;67.85;101537.09;5123217;28;20595;-65
2022/07/08 02:52:08;;;;;;;7.57;2.63;;;;;;;14.75;67.91;101540.19;5123053;28;20501;-66
2022/07/08 02:54:34;;;;;;;8.37;2.20;;;;;;;14.90;67.44;101540.69;5122855;27;20507;-66
2022/07/08 02:57:01;;;;;;;4.43;1.90;;;;;;;14.79;67.87;101537.09;5123018;28;20470;-66
2022/07/08 02:59:28;;;;;;;11.57;2.30;;;;;;;14.88;67.45;101547.03;5122770;28;20521;-64
2022/07/08 03:01:54;;;;;;;6.40;1.73;;;;;;;14.82;67.69;101536.81;5121667;28;20486;-66
2022/07/08 03:04:23;;;;;;;9.60;2.07;;;;;;;14.74;68.07;101536.66;5123074;27;20462;-67
2022/07/08 03:06:49;;;;;;;9.40;2.40;;;;;;;14.95;67.58;101544.66;5122162;28;20474;-67
2022/07/08 03:09:16;;;;;;;9.33;2.73;;;;;;;14.82;68.17;101544.88;5123448;28;20441;-66
2022/07/08 03:11:43;;;;;;;7.97;2.10;;;;;;;14.80;68.22;101546.88;5122447;28;20501;-65
2022/07/08 03:14:09;;;;;;;11.83;2.67;;;;;;;14.68;68.66;101546.09;5122501;27;20450;-64
2022/07/08 03:16:36;;;;;;;10.73;2.40;;;;;;;14.73;68.34;101545.72;5128112;27;20500;-66
2022/07/08 03:19:03;;;;;;;8.00;2.03;;;;;;;14.66;68.73;101549.94;5123387;28;20452;-67
2022/07/08 03:21:31;;;;;;;8.47;2.20;;;;;;;14.80;68.03;101556.78;5122245;28;20465;-67
2022/07/08 03:23:58;;;;;;;7.57;2.27;;;;;;;14.86;67.91;101558.97;5122740;28;20492;-66
2022/07/08 03:26:24;;;;;;;16.93;2.70;;;;;;;14.80;68.49;101554.09;5122476;27;20486;-65
2022/07/08 03:28:51;;;;;;;6.23;2.07;;;;;;;14.78;68.12;101554.22;5122615;28;20466;-65
2022/07/08 03:31:18;;;;;;;8.73;1.70;;;;;;;14.85;68.24;101555.38;5121627;28;21072;-66
2022/07/08 03:33:44;;;;;;;6.60;2.40;;;;;;;14.75;68.52;101548.28;5122751;28;20477;-66
2022/07/08 03:36:11;;;;;;;9.50;2.07;;;;;;;14.76;68.36;101541.91;5121276;28;20505;-66
2022/07/08 03:38:39;;;;;;;10.43;2.40;;;;;;;14.71;68.41;101550.38;5122631;28;20501;-66
2022/07/08 03:41:20;;;;;;;7.10;2.17;;;;;;;14.91;68.26;101555.84;5133781;27;20512;-66
2022/07/08 03:43:46;;;;;;;5.93;1.80;;;;;;;14.93;67.75;101557.41;5120815;28;20454;-66
2022/07/08 03:46:13;;;;;;;7.37;1.97;;;;;;;14.93;67.87;101564.63;5120447;27;20865;-67
2022/07/08 03:48:40;;;;;;;9.77;2.30;;;;;;;15.00;67.39;101565.81;5122213;28;20438;-66
2022/07/08 03:51:07;;;;;;;7.97;2.17;;;;;;;14.94;67.75;101569.03;5121417;28;20477;-65
2022/07/08 03:53:34;;;;;;;7.77;2.90;;;;;;;14.97;67.61;101579.53;5122089;28;20450;-66
2022/07/08 03:56:05;;;;;;;8.20;2.37;;;;;;;15.01;66.98;101583.66;5121672;27;20470;-66
2022/07/08 03:58:32;;;;;;;6.50;1.70;;;;;;;15.11;66.54;101589.91;5122337;28;20544;-65
2022/07/08 04:00:59;;;;;;;9.83;3.43;;;;;;;14.96;66.58;101591.28;5120879;28;20496;-66
2022/07/08 04:03:25;;;;;;;7.13;2.20;;;;;;;15.08;66.67;101595.56;5121599;28;20990;-66
2022/07/08 04:05:52;;;;;;;7.20;2.23;;;;;;;15.16;65.90;101605.69;5121347;27;20908;-66
2022/07/08 04:08:19;;;;;;;10.17;2.97;;;;;;;15.19;65.89;101608.94;5106008;28;20833;-65
2022/07/08 04:10:46;;;;;;;5.47;1.83;;;;;;;15.24;65.67;101613.91;5121340;28;21324;-67
2022/07/08 04:13:14;;;;;;;7.30;2.27;;;;;;;15.29;65.56;101608.09;5121776;28;20474;-67
2022/07/08 04:15:40;;;;;;;5.47;1.67;;;;;;;15.31;65.35;101611.50;5119267;28;20484;-67
2022/07/08 04:18:07;;;;;;;11.70;3.20;;;;;;;15.25;65.65;101615.63;5120288;28;20520;-67
2022/07/08 04:20:34;;;;;;;11.43;2.67;;;;;;;15.31;64.95;101614.22;5121524;28;20511;-66
2022/07/08 04:23:00;;;;;;;4.90;2.17;;;;;;;15.42;64.76;101617.66;5123532;27;20469;-67
2022/07/08 04:25:27;;;;;;;7.10;1.90;;;;;;;15.38;64.40;101616.22;5120912;28;20454;-66
2022/07/08 04:27:54;;;;;;;11.00;2.93;;;;;;;15.44;64.33;101623.75;5121310;28;20442;-67
2022/07/08 04:30:22;;;;;;;5.53;1.80;;;;;;;15.42;64.33;101619.50;5121463;28;20415;-67
2022/07/08 04:32:48;;;;;;;11.43;2.80;;;;;;;15.28;64.96;101618.03;5120975;28;20490;-68
2022/07/08 04:35:15;;;;;;;8.00;2.40;;;;;;;15.46;64.61;101618.22;5120597;28;20453;-68
2022/07/08 04:37:42;;;;;;;7.87;2.20;;;;;;;15.56;64.04;101626.34;5119989;28;20910;-67
2022/07/08 04:40:10;;;;;;;5.37;2.23;;;;;;;15.54;64.47;101642.63;5119129;28;20441;-67
2022/07/08 04:42:37;;;;;;;7.47;2.30;;;;;;;15.70;63.59;101638.56;5120208;27;20451;-66
2022/07/08 04:45:07;;;;;;;5.20;1.80;;;;;;;15.63;64.07;101628.31;5117589;28;20461;-67
2022/07/08 04:47:35;;;;;;;5.27;1.80;;;;;;;15.60;64.21;101635.84;5118770;28;20832;-67
2022/07/08 04:50:02;;;;;;;11.10;2.20;;;;;;;15.41;64.22;101628.56;5119438;28;20832;-67
2022/07/08 04:52:29;;;;;;;8.97;2.43;;;;;;;15.49;64.77;101635.97;5119570;27;20481;-67
2022/07/08 04:54:56;;;;;;;9.77;2.13;;;;;;;15.57;64.46;101639.69;5120173;28;20446;-67
2022/07/08 04:57:22;;;;;;;14.40;2.73;;;;;;;15.49;64.60;101641.38;5119940;28;20519;-67
2022/07/08 04:59:49;;;;;;;7.03;2.63;;;;;;;15.66;64.57;101639.81;5118534;28;20442;-68
2022/07/08 05:02:16;;;;;;;9.67;2.53;;;;;;;15.52;64.58;101646.44;5119164;27;20481;-66
2022/07/08 05:04:44;;;;;;;5.47;2.37;;;;;;;15.54;64.93;101644.50;5119116;28;20485;-65
2022/07/08 05:07:10;;;;;;;9.67;2.30;;;;;;;15.43;65.47;101638.22;5116655;28;21107;-67
2022/07/08 05:09:37;;;;;;;7.17;1.80;;;;;;;15.44;65.85;101637.22;5120279;28;20472;-67
2022/07/08 05:12:05;;;;;;;7.77;2.13;;;;;;;15.71;65.18;101646.50;5118716;28;20506;-76
2022/07/08 05:14:33;;;;;;;6.47;2.80;;;;;;;15.76;65.28;101644.28;5119805;28;20457;-63
2022/07/08 05:17:00;;;;;;;8.43;2.33;;;;;;;15.79;65.32;101646.66;5124365;27;21036;-67
2022/07/08 05:19:27;;;;;;;16.33;2.27;;;;;;;15.96;64.84;101644.28;5125917;27;20467;-68
2022/07/08 05:21:55;;;;;;;9.77;2.33;;;;;;;15.97;64.23;101638.75;5118852;28;20608;-67
2022/07/08 05:24:22;;;;;;;8.30;3.77;;;;;;;16.10;64.08;101651.94;5119465;28;20517;-67
2022/07/08 05:26:48;;;;;;;5.40;2.00;;;;;;;16.10;64.38;101646.53;5119404;28;20478;-67
2022/07/08 05:29:15;;;;;;;8.30;2.77;;;;;;;15.88;64.91;101649.53;5119363;28;20431;-67
2022/07/08 05:31:42;;;;;;;5.33;2.23;;;;;;;16.18;63.83;101646.69;5118870;28;20481;-66
2022/07/08 05:34:09;;;;;;;7.57;2.53;;;;;;;16.33;63.74;101649.78;5120058;28;20732;-67
2022/07/08 05:36:35;;;;;;;6.87;2.20;;;;;;;16.43;63.18;101643.53;5118953;28;20517;-67
2022/07/08 05:39:03;;;;;;;11.70;2.70;;;;;;;16.21;64.25;101652.78;5120174;28;20485;-67
2022/07/08 05:41:30;;;;;;;5.47;2.30;;;;;;;16.14;63.81;101652.50;5118834;28;20482;-67
2022/07/08 05:43:57;;;;;;;5.17;1.80;;;;;;;16.40;63.44;101651.91;5119234;28;20494;-65
2022/07/08 05:46:23;;;;;;;9.57;2.37;;;;;;;16.65;62.73;101663.97;5118602;28;20824;-67
2022/07/08 05:48:50;;;;;;;6.73;1.90;;;;;;;16.35;63.60;101661.31;5120136;28;21306;-68
2022/07/08 05:51:17;;;;;;;9.73;2.43;;;;;;;16.15;63.86;101668.56;5118688;28;20847;-67
2022/07/08 05:53:43;;;;;;;4.27;2.27;;;;;;;16.06;63.47;101669.41;5120471;28;20446;-67
2022/07/08 05:56:11;;;;;;;7.60;2.00;;;;;;;16.03;64.32;101663.44;5126085;28;20508;-68
2022/07/08 05:58:38;;;;;;;10.03;2.57;;;;;;;16.26;63.57;101658.59;5144469;27;20538;-68
2022/07/08 06:01:05;;;;;;;7.43;2.53;;;;;;;16.66;62.17;101669.19;5146631;27;20860;-68
2022/07/08 06:03:32;;;;;;;10.97;2.83;;;;;;;16.87;62.02;101660.94;5146444;27;20449;-69
2022/07/08 06:05:59;;;;;;;8.57;2.00;;;;;;;17.03;61.29;101664.84;5139034;27;20543;-68
2022/07/08 06:08:25;;;;;;;7.20;2.00;;;;;;;16.86;61.62;101663.78;5126509;28;20442;-68
2022/07/08 06:10:52;;;;;;;13.53;2.50;;;;;;;17.09;60.98;101677.78;5125952;28;20538;-68
2022/07/08 06:13:20;;;;;;;9.10;2.20;;;;;;;16.68;62.13;101672.63;5135136;27;20452;-67
2022/07/08 06:15:47;;;;;;;4.90;1.93;;;;;;;16.85;61.65;101676.41;5146163;27;20468;-67
2022/07/08 06:18:15;;;;;;;10.37;2.90;;;;;;;17.40;60.56;101678.34;5146791;27;20484;-68
2022/07/08 06:20:42;;;;;;;6.87;1.90;;;;;;;17.59;59.75;101682.78;5146176;27;20928;-68
2022/07/08 06:23:09;;;;;;;6.00;2.43;;;;;;;17.41;59.58;101690.88;5139477;27;20433;-68
2022/07/08 06:25:36;;;;;;;9.57;2.30;;;;;;;17.77;57.97;101685.50;5125612;28;20561;-68
2022/07/08 06:28:03;;;;;;;7.47;2.40;;;;;;;17.86;58.17;101700.00;5126011;28;20463;-68
2022/07/08 06:30:31;;;;;;;8.03;2.07;;;;;;;17.85;58.11;101701.00;5126042;27;20465;-68
2022/07/08 06:32:59;;;;;;;11.60;2.50;;;;;;;17.57;58.80;101689.34;5125586;28;20441;-69
2022/07/08 06:35:26;;;;;;;11.80;2.33;;;;;;;17.49;58.97;101698.22;5124865;28;20466;-67
2022/07/08 06:37:53;;;;;;;5.70;1.90;;;;;;;17.76;58.08;101697.34;5126095;28;20528;-68
2022/07/08 06:40:21;;;;;;;5.73;1.97;;;;;;;17.94;58.00;101704.66;5124603;27;20426;-68
2022/07/08 06:42:48;;;;;;;6.10;1.70;;;;;;;18.88;55.25;101704.13;5125867;28;20434;-68
2022/07/08 06:45:16;;;;;;;5.80;1.90;;;;;;;18.78;55.24;101700.63;5125430;28;20465;-69
2022/07/08 06:47:44;;;;;;;8.90;1.70;;;;;;;18.87;55.19;101697.03;5124897;28;20483;-70
2022/07/08 06:50:11;;;;;;;6.20;1.70;;;;;;;19.59;53.07;101699.38;5125130;27;20437;-68
2022/07/08 06:52:38;;;;;;;4.70;2.10;;;;;;;19.76;52.10;101692.19;5126067;28;20429;-69
2022/07/08 06:55:06;;;;;;;6.70;1.90;;;;;;;19.28;53.13;101686.38;5126500;28;20449;-68
2022/07/08 06:57:33;;;;;;;8.40;2.03;;;;;;;18.86;53.99;101687.19;5125268;28;20512;-69
2022/07/08 06:59:59;;;;;;;6.33;1.93;;;;;;;21.00;49.73;101690.31;5126910;28;20463;-68
2022/07/08 07:02:26;;;;;;;8.80;2.00;;;;;;;20.82;48.51;101691.38;5124755;27;20512;-70
2022/07/08 07:04:54;;;;;;;5.27;1.77;;;;;;;20.39;48.85;101684.44;5125236;28;20441;-67
2022/07/08 07:07:21;;;;;;;6.03;1.77;;;;;;;21.54;48.49;101682.31;5125479;28;20501;-68
2022/07/08 07:09:48;;;;;;;6.83;1.97;;;;;;;21.84;46.17;101687.94;5122905;28;20465;-66
2022/07/08 07:12:15;;;;;;;8.57;2.23;;;;;;;20.54;48.34;101685.47;5121949;27;20478;-67
2022/07/08 07:14:42;;;;;;;7.70;2.53;;;;;;;20.87;48.25;101680.00;5122721;28;20478;-67
2022/07/08 07:17:09;;;;;;;6.73;1.83;;;;;;;19.43;49.71;101677.63;5121406;28;20978;-67
2022/07/08 07:19:35;;;;;;;6.90;2.27;;;;;;;20.79;47.56;101682.72;5122200;28;20474;-66
2022/07/08 07:22:04;;;;;;;6.27;1.93;;;;;;;21.44;46.06;101693.41;5121916;27;20505;-68
2022/07/08 07:24:31;;;;;;;5.03;1.60;;;;;;;21.07;46.88;101696.75;5122412;28;20775;-66
2022/07/08 07:26:57;;;;;;;8.53;1.83;;;;;;;20.28;48.44;101700.06;5121890;28;20499;-68
2022/07/08 07:29:24;;;;;;;6.90;1.80;;;;;;;20.29;48.17;101701.78;5122703;28;20457;-68
2022/07/08 07:31:51;;;;;;;7.80;1.57;;;;;;;21.26;45.38;101703.66;5131847;27;20475;-68
2022/07/08 07:34:17;;;;;;;3.60;1.70;;;;;;;22.07;42.95;101709.75;5142184;27;20529;-67
2022/07/08 07:36:44;;;;;;;6.00;1.47;;;;;;;23.86;38.75;101704.50;5142385;27;20511;-68
2022/07/08 07:39:12;;;;;;;6.07;1.40;;;;;;;24.78;36.31;101716.53;5143233;27;20578;-68
2022/07/08 07:41:39;;;;;;;7.30;1.60;;;;;;;22.67;39.56;101716.28;5127477;27;20515;-68
2022/07/08 07:44:06;;;;;;;6.17;1.50;;;;;;;23.35;39.47;101719.00;5121701;28;20454;-67
2022/07/08 07:46:33;;;;;;;6.00;1.70;;;;;;;25.44;35.81;101721.59;5120133;28;20474;-68
2022/07/08 07:49:00;;;;;;;3.37;1.20;;;;;;;27.03;33.21;101722.94;5121834;28;20476;-68
2022/07/08 07:51:26;;;;;;;7.40;1.50;;;;;;;24.27;36.93;101722.16;5128998;27;20512;-65
2022/07/08 07:53:53;;;;;;;5.53;1.50;;;;;;;22.90;40.39;101726.28;5142437;27;20445;-67
2022/07/08 07:56:22;;;;;;;6.57;1.20;;;;;;;22.93;39.70;101732.22;5141910;27;20494;-68
2022/07/08 07:58:49;;;;;;;5.23;1.20;;;;;;;24.59;36.97;101727.09;5126747;27;20538;-69
2022/07/08 08:01:16;;;;;;;4.40;1.40;;;;;;;25.46;35.06;101732.34;5125854;27;20502;-67
2022/07/08 08:03:42;;;;;;;3.60;1.17;;;;;;;27.19;32.21;101732.59;5142192;27;21022;-68
2022/07/08 08:06:09;;;;;;;5.93;1.57;;;;;;;26.80;32.04;101723.38;5142207;27;20469;-69
2022/07/08 08:08:36;;;;;;;4.33;1.50;;;;;;;27.58;31.42;101724.47;5126700;27;20486;-69
2022/07/08 08:11:03;;;;;;;4.63;1.30;;;;;;;27.61;31.44;101724.03;5120899;27;20484;-68
2022/07/08 08:13:31;;;;;;;3.70;1.07;;;;;;;25.70;34.80;101728.25;5121564;28;20439;-69
2022/07/08 08:15:58;;;;;;;6.63;1.70;;;;;;;24.87;37.15;101719.97;5119692;28;21103;-69
2022/07/08 08:18:25;;;;;;;5.90;1.73;;;;;;;21.88;42.36;101715.66;5121276;28;20482;-69
2022/07/08 08:20:51;;;;;;;4.93;2.00;;;;;;;22.46;42.04;101721.56;5120049;27;20466;-69
2022/07/08 08:23:18;;;;;;;8.30;2.30;;;;;;;23.43;40.92;101712.56;5120837;28;20426;-68
2022/07/08 08:25:45;;;;;;;5.40;1.70;;;;;;;23.47;39.29;101720.19;5120958;28;20533;-70
2022/07/08 08:28:11;;;;;;;4.97;2.17;;;;;;;23.94;38.94;101720.78;5121547;28;20503;-68
2022/07/08 08:30:40;;;;;;;6.57;1.40;;;;;;;26.30;34.64;101720.19;5119830;28;20462;-68
2022/07/08 08:33:06;;;;;;;6.00;1.40;;;;;;;25.45;34.85;101727.91;5140335;27;20517;-69
2022/07/08 08:35:33;;;;;;;4.07;1.67;;;;;;;25.33;35.21;101722.19;5140918;27;20533;-67
2022/07/08 08:38:00;;;;;;;8.80;2.10;;;;;;;25.01;36.58;101721.75;5140443;27;20545;-68
2022/07/08 08:40:28;;;;;;;5.33;1.47;;;;;;;24.87;36.70;101723.53;5140853;27;20509;-67
2022/07/08 08:42:55;;;;;;;4.00;1.40;;;;;;;24.14;36.49;101725.63;5122460;27;20445;-67
2022/07/08 08:45:21;;;;;;;6.47;1.90;;;;;;;24.26;37.04;101724.06;5119708;28;20815;-69
2022/07/08 08:47:53;;;;;;;3.10;1.53;;;;;;;23.91;36.48;101718.44;5119724;28;20454;-67
2022/07/08 08:53:07;;;;;;;7.37;1.57;;;;;;;25.69;34.77;101726.53;5136347;27;20628;-69
2022/07/08 08:55:34;;;;;;;9.37;1.83;;;;;;;25.68;34.69;101716.66;5141326;27;20667;-68
2022/07/08 08:58:02;;;;;;;4.70;1.37;;;;;;;23.92;38.91;101730.19;5141086;27;20777;-68
2022/07/08 09:00:30;;;;;;;4.60;1.70;;;;;;;23.62;39.75;101724.78;5140123;27;20479;-68
2022/07/08 09:02:59;;;;;;;6.40;1.50;;;;;;;22.61;42.29;101730.63;5122241;27;20478;-68
2022/07/08 09:05:26;;;;;;;5.23;1.40;;;;;;;22.87;41.09;101729.38;5120091;28;20511;-69
2022/07/08 09:07:53;;;;;;;8.23;1.67;;;;;;;22.43;42.83;101727.38;5119496;28;20483;-68
2022/07/08 09:10:20;;;;;;;7.07;1.70;;;;;;;22.38;42.05;101725.22;5119893;28;20441;-70
2022/07/08 09:13:04;;;;;;;4.43;1.37;;;;;;;22.45;42.21;101731.63;5129827;27;20776;-67
2022/07/08 09:15:32;;;;;;;6.70;1.57;;;;;;;22.70;41.27;101723.22;5139827;27;20463;-68
2022/07/08 09:18:03;;;;;;;6.57;1.67;;;;;;;22.51;42.12;101725.44;5138965;27;20449;-69
2022/07/08 09:20:47;;;;;;;5.30;1.60;;;;;;;23.18;40.96;101729.25;5140463;27;20507;-68
2022/07/08 09:23:17;;;;;;;5.83;1.77;;;;;;;23.90;39.14;101726.81;5138274;27;20452;-68
2022/07/08 09:25:43;;;;;;;4.33;1.37;;;;;;;24.95;37.29;101728.03;5139555;27;20498;-67
2022/07/08 09:28:10;;;;;;;6.80;1.70;;;;;;;25.13;36.78;101724.75;5140838;27;20457;-69
2022/07/08 09:30:39;;;;;;;9.00;1.90;;;;;;;22.85;41.63;101724.09;5139284;27;20477;-69
2022/07/08 09:33:07;;;;;;;5.87;1.80;;;;;;;23.29;41.27;101722.47;5118837;28;20449;-70
2022/07/08 09:35:38;;;;;;;4.87;1.57;;;;;;;22.95;41.26;101732.03;5119526;28;20477;-69
2022/07/08 09:38:06;;;;;;;7.13;1.40;;;;;;;22.83;40.46;101731.63;5119369;28;20523;-69
2022/07/08 09:40:33;;;;;;;6.93;1.50;;;;;;;23.00;41.29;101728.72;5118532;28;20466;-70
2022/07/08 09:43:04;;;;;;;3.93;1.40;;;;;;;22.98;40.01;101723.44;5118217;28;20442;-66
2022/07/08 09:45:31;;;;;;;5.83;1.50;;;;;;;22.85;40.49;101721.38;5114493;28;20545;-69
2022/07/08 09:48:03;;;;;;;4.63;2.00;;;;;;;22.03;43.10;101716.59;5118769;28;20787;-69
2022/07/08 09:50:35;;;;;;;5.97;1.67;;;;;;;22.83;41.62;101718.00;5118889;28;20919;-69
2022/07/08 09:53:12;;;;;;;3.50;1.50;;;;;;;22.52;42.86;101715.41;5123031;27;20932;-69
2022/07/08 09:55:39;;;;;;;4.83;1.70;;;;;;;22.48;42.43;101720.38;5140255;27;20468;-69
2022/07/08 09:58:06;;;;;;;2.70;1.07;;;;;;;22.37;42.89;101713.44;5140127;28;20445;-69
2022/07/08 10:00:33;;;;;;;6.03;1.40;;;;;;;21.80;44.93;101727.44;5139797;28;20461;-69
2022/07/08 10:03:00;;;;;;;7.63;1.60;;;;;;;21.04;46.23;101713.44;5119094;28;20458;-68
2022/07/08 10:05:27;;;;;;;5.80;1.73;;;;;;;21.08;46.93;101708.50;5119488;28;20486;-70
2022/07/08 10:07:55;;;;;;;2.90;1.40;;;;;;;21.51;46.10;101698.16;5118800;28;20450;-66
2022/07/08 10:10:22;;;;;;;5.00;1.57;;;;;;;22.14;45.13;101712.59;5119339;28;20426;-69
2022/07/08 10:12:48;;;;;;;7.03;1.83;;;;;;;21.59;45.28;101704.41;5120232;28;20483;-68
2022/07/08 10:15:16;;;;;;;6.83;1.60;;;;;;;21.84;45.44;101698.84;5118539;28;20456;-69
2022/07/08 10:17:44;;;;;;;6.13;2.03;;;;;;;22.09;45.38;101704.97;5119240;28;20451;-69
2022/07/08 10:20:11;;;;;;;6.03;2.03;;;;;;;22.81;43.60;101706.44;5119357;28;20492;-70
2022/07/08 10:22:39;;;;;;;4.30;1.30;;;;;;;22.82;42.65;101708.09;5132084;28;21019;-69
2022/07/08 10:25:08;;;;;;;7.00;1.57;;;;;;;23.39;41.22;101700.34;5140138;28;20445;-68
2022/07/08 10:27:36;;;;;;;5.57;1.87;;;;;;;24.08;39.55;101697.19;5139537;28;20446;-69
2022/07/08 10:30:15;;;;;;;12.47;1.83;;;;;;;23.78;40.44;101701.88;5139597;28;20429;-69
2022/07/08 10:32:43;;;;;;;8.43;1.60;;;;;;;23.19;40.92;101708.25;5122790;28;20538;-70
2022/07/08 10:35:11;;;;;;;3.83;1.30;;;;;;;23.79;41.02;101700.84;5116340;28;20514;-69
2022/07/08 10:37:48;;;;;;;3.80;1.30;;;;;;;24.98;38.72;101700.25;5112474;28;20486;-70
2022/07/08 10:40:50;;;;;;;7.13;1.70;;;;;;;25.54;36.52;101700.16;5117443;28;20518;-69
2022/07/08 10:43:26;;;;;;;3.90;1.20;;;;;;;25.92;36.50;101696.91;5135286;28;20509;-69
2022/07/08 10:46:00;;;;;;;2.40;0.93;;;;;;;26.05;36.37;101695.28;5122182;27;20469;-70
2022/07/08 10:48:28;;;;;;;4.80;1.50;;;;;;;24.58;39.32;101695.34;5122810;27;20442;-69
2022/07/08 10:50:55;;;;;;;4.13;1.60;;;;;;;25.82;37.41;101704.66;5121108;28;20656;-69
2022/07/08 10:53:22;;;;;;;5.10;1.20;;;;;;;24.32;39.32;101698.69;5122933;28;20452;-69
2022/07/08 10:55:50;;;;;;;4.70;1.30;;;;;;;24.41;39.94;101708.44;5122273;28;21098;-68
2022/07/08 10:58:16;;;;;;;3.50;1.50;;;;;;;24.29;40.93;101704.53;5123218;27;20858;-70
2022/07/08 11:01:24;;;;;;;4.43;1.70;;;;;;;23.79;41.22;101706.28;5142286;27;20735;-69
2022/07/08 11:03:51;;;;;;;6.83;1.37;;;;;;;23.04;43.20;101711.81;5142895;27;20559;-69
2022/07/08 11:06:35;;;;;;;4.33;1.80;;;;;;;22.91;44.25;101722.50;5142319;27;20498;-68
2022/07/08 11:09:02;;;;;;;5.50;1.50;;;;;;;22.55;44.53;101710.41;5134345;27;20565;-69
2022/07/08 11:11:30;;;;;;;5.73;1.70;;;;;;;23.83;42.15;101704.91;5122226;28;20483;-69
2022/07/08 11:13:58;;;;;;;4.57;1.60;;;;;;;24.56;41.03;101710.25;5122363;28;20452;-70
2022/07/08 11:16:32;;;;;;;4.50;1.37;;;;;;;24.68;40.91;101719.59;5121634;28;20473;-68
2022/07/08 11:18:58;;;;;;;3.77;1.50;;;;;;;23.97;41.55;101717.66;5127047;27;20433;-69
2022/07/08 11:21:25;;;;;;;3.43;1.07;;;;;;;24.00;42.19;101724.63;5142727;27;20468;-67
2022/07/08 11:23:53;;;;;;;3.83;1.20;;;;;;;23.75;42.60;101724.09;5143207;27;20442;-69
2022/07/08 11:26:20;;;;;;;5.33;1.70;;;;;;;23.39;43.21;101722.19;5142449;27;21069;-69
2022/07/08 11:28:48;;;;;;;4.53;1.53;;;;;;;23.70;42.70;101711.03;5136925;27;20556;-69